| time (UTC) | temp F | wind direction | speed knots | gust knots | rain 1hr in | rain 24hr in | rain mn in | humidity % | barometer mb |
| 20260505194503 | 69 | 286 | 5.2 | 15.6 | 0.00 | 0.00 | 0.00 | 60 | 1008.0 |
| 20260505194004 | 69 | 200 | 4.3 | 14.8 | 0.00 | 0.00 | 0.00 | 61 | 1008.1 |
| 20260505193506 | 69 | 224 | 3.5 | 12.2 | 0.00 | 0.00 | 0.00 | 62 | 1008.0 |
| 20260505193003 | 69 | 200 | 4.3 | 12.2 | 0.00 | 0.00 | 0.00 | 61 | 1008.1 |
| 20260505192503 | 69 | 254 | 4.3 | 13.9 | 0.00 | 0.00 | 0.00 | 61 | 1008.2 |
| 20260505192009 | 69 | 205 | 4.3 | 13.9 | 0.00 | 0.00 | 0.00 | 61 | 1008.3 |
| 20260505191507 | 69 | 218 | 5.2 | 13.0 | 0.00 | 0.00 | 0.00 | 61 | 1008.5 |
| 20260505191003 | 69 | 155 | 4.3 | 13.0 | 0.00 | 0.00 | 0.00 | 60 | 1008.5 |
| 20260505190503 | 69 | 348 | 3.5 | 13.9 | 0.00 | 0.00 | 0.00 | 62 | 1008.5 |
| 20260505190014 | 69 | 217 | 6.1 | 13.9 | 0.00 | 0.00 | 0.00 | 61 | 1008.5 |
| 20260505185505 | 68 | 119 | 3.5 | 11.3 | 0.00 | 0.00 | 0.00 | 63 | 1008.5 |
| 20260505185010 | 68 | 231 | 3.5 | 12.2 | 0.00 | 0.00 | 0.00 | 62 | 1008.6 |
| 20260505184516 | 68 | 206 | 4.3 | 14.8 | 0.00 | 0.00 | 0.00 | 62 | 1008.7 |
| 20260505184008 | 68 | 171 | 3.5 | 14.8 | 0.00 | 0.00 | 0.00 | 62 | 1008.8 |
| 20260505183503 | 68 | 209 | 3.5 | 9.6 | 0.00 | 0.00 | 0.00 | 62 | 1008.8 |
| 20260505183003 | 68 | 207 | 3.5 | 13.0 | 0.00 | 0.00 | 0.00 | 62 | 1008.8 |
| 20260505182507 | 68 | 192 | 4.3 | 13.0 | 0.00 | 0.00 | 0.00 | 62 | 1008.8 |
| 20260505182003 | 68 | 274 | 2.6 | 15.6 | 0.00 | 0.00 | 0.00 | 63 | 1008.8 |
| 20260505181504 | 68 | 288 | 4.3 | 18.2 | 0.00 | 0.00 | 0.00 | 62 | 1008.7 |
| 20260505181002 | 68 | 160 | 3.5 | 18.2 | 0.00 | 0.00 | 0.00 | 62 | 1008.7 |
| 20260505180504 | 68 | 220 | 6.1 | 14.8 | 0.00 | 0.00 | 0.00 | 62 | 1008.7 |
| 20260505180014 | 68 | 218 | 2.6 | 14.8 | 0.00 | 0.00 | 0.00 | 62 | 1008.6 |
| 20260505175507 | 68 | 205 | 4.3 | 10.4 | 0.00 | 0.00 | 0.00 | 62 | 1008.7 |
| 20260505175007 | 69 | 196 | 3.5 | 10.4 | 0.00 | 0.00 | 0.00 | 61 | 1008.7 |
| 20260505174513 | 69 | 173 | 1.7 | 10.4 | 0.00 | 0.00 | 0.00 | 61 | 1008.6 |
| 20260505174008 | 69 | 284 | 3.5 | 10.4 | 0.00 | 0.00 | 0.00 | 61 | 1008.6 |
| 20260505173512 | 69 | 267 | 3.5 | 10.4 | 0.00 | 0.00 | 0.00 | 61 | 1008.6 |
| 20260505173019 | 69 | 246 | 1.7 | 13.0 | 0.00 | 0.00 | 0.00 | 62 | 1008.6 |
| 20260505172509 | 69 | 119 | 7.0 | 13.0 | 0.00 | 0.00 | 0.00 | 60 | 1008.7 |
| 20260505172013 | 69 | 240 | 3.5 | 13.0 | 0.00 | 0.00 | 0.00 | 60 | 1008.8 |
| 20260505171506 | 70 | 272 | 5.2 | 13.9 | 0.00 | 0.00 | 0.00 | 60 | 1008.9 |
| 20260505171003 | 70 | 275 | 4.3 | 13.9 | 0.00 | 0.00 | 0.00 | 59 | 1008.8 |
| 20260505170504 | 71 | 273 | 3.5 | 9.6 | 0.00 | 0.00 | 0.00 | 60 | 1008.9 |
| 20260505170009 | 71 | 165 | 2.6 | 11.3 | 0.00 | 0.00 | 0.00 | 60 | 1008.9 |
| 20260505165505 | 71 | 215 | 1.7 | 11.3 | 0.00 | 0.00 | 0.00 | 59 | 1008.8 |
| 20260505165006 | 71 | 232 | 3.5 | 15.6 | 0.00 | 0.00 | 0.00 | 57 | 1008.8 |
| 20260505164511 | 71 | 241 | 5.2 | 15.6 | 0.00 | 0.00 | 0.00 | 57 | 1008.9 |
| 20260505164003 | 71 | 209 | 6.1 | 14.8 | 0.00 | 0.00 | 0.00 | 56 | 1008.7 |
| 20260505163509 | 71 | 248 | 5.2 | 10.4 | 0.00 | 0.00 | 0.00 | 58 | 1008.7 |
| 20260505163018 | 71 | 250 | 3.5 | 11.3 | 0.00 | 0.00 | 0.00 | 60 | 1008.7 |
| 20260505162506 | 71 | 210 | 5.2 | 11.3 | 0.00 | 0.00 | 0.00 | 58 | 1008.8 |
| 20260505162010 | 70 | 221 | 2.6 | 10.4 | 0.00 | 0.00 | 0.00 | 58 | 1008.9 |
| 20260505161521 | 70 | 144 | 2.6 | 13.0 | 0.00 | 0.00 | 0.00 | 59 | 1009.1 |
| 20260505161008 | 70 | 207 | 7.0 | 13.9 | 0.00 | 0.00 | 0.00 | 57 | 1009.0 |
| 20260505160512 | 71 | 202 | 3.5 | 16.5 | 0.00 | 0.00 | 0.00 | 58 | 1009.1 |
| 20260505153015 | 69 | 227 | 2.6 | 14.8 | 0.00 | 0.00 | 0.00 | 62 | 1009.0 |
| 20260505152507 | 68 | 212 | 4.3 | 14.8 | 0.00 | 0.00 | 0.00 | 62 | 1008.9 |
| 20260505152011 | 68 | 186 | 1.7 | 13.0 | 0.00 | 0.00 | 0.00 | 65 | 1008.9 |
| 20260505151517 | 68 | 193 | 5.2 | 13.0 | 0.00 | 0.00 | 0.00 | 65 | 1008.8 |
| 20260505151007 | 67 | 207 | 3.5 | 12.2 | 0.00 | 0.00 | 0.00 | 65 | 1008.8 |
| 20260505150506 | 67 | 38 | 2.6 | 12.2 | 0.00 | 0.00 | 0.00 | 67 | 1008.7 |
| 20260505140512 | 63 | 196 | 4.3 | 9.6 | 0.00 | 0.00 | 0.00 | 76 | 1008.2 |
| 20260505125013 | 60 | 202 | 1.7 | 8.7 | 0.00 | 0.00 | 0.00 | 80 | 1008.4 |
| 20260505124529 | 60 | 170 | 2.6 | 11.3 | 0.00 | 0.00 | 0.00 | 79 | 1008.3 |
| 20260505124002 | 60 | 279 | 5.2 | 11.3 | 0.00 | 0.00 | 0.00 | 79 | 1008.3 |
| 20260505123502 | 59 | 194 | 1.7 | 7.8 | 0.00 | 0.00 | 0.00 | 80 | 1008.2 |
| 20260505123007 | 59 | 186 | 2.6 | 7.8 | 0.00 | 0.00 | 0.00 | 80 | 1008.2 |
| 20260505122508 | 59 | 248 | 1.7 | 10.4 | 0.00 | 0.00 | 0.00 | 79 | 1008.2 |
| 20260505122003 | 59 | 192 | 4.3 | 10.4 | 0.00 | 0.00 | 0.00 | 80 | 1008.1 |
| 20260505121514 | 59 | 184 | 1.7 | 7.8 | 0.00 | 0.00 | 0.00 | 80 | 1007.9 |
| 20260505121003 | 59 | 201 | 0.9 | 7.0 | 0.00 | 0.00 | 0.00 | 79 | 1007.7 |
| 20260505120508 | 59 | 252 | 0.9 | 7.0 | 0.00 | 0.00 | 0.00 | 79 | 1007.6 |
| 20260505120029 | 59 | 211 | 2.6 | 7.8 | 0.00 | 0.00 | 0.00 | 79 | 1007.0 |
| 20260505115506 | 59 | 155 | 1.7 | 8.7 | 0.00 | 0.00 | 0.00 | 79 | 1007.2 |
| 20260505115010 | 59 | 206 | 2.6 | 8.7 | 0.00 | 0.00 | 0.00 | 78 | 1007.3 |
| 20260505114522 | 59 | 175 | 0.9 | 5.2 | 0.00 | 0.00 | 0.00 | 79 | 1007.4 |
| 20260505114009 | 59 | 199 | 0.9 | 9.6 | 0.00 | 0.00 | 0.00 | 78 | 1007.4 |
| 20260505113510 | 59 | 172 | 0.9 | 9.6 | 0.00 | 0.00 | 0.00 | 78 | 1007.3 |
| 20260505113025 | 59 | 183 | 1.7 | 5.2 | 0.00 | 0.00 | 0.00 | 78 | 1007.6 |
| 20260505112509 | 60 | 204 | 0.0 | 6.1 | 0.00 | 0.00 | 0.00 | 77 | 1007.6 |
| 20260505112004 | 60 | 234 | 1.7 | 7.0 | 0.00 | 0.00 | 0.00 | 76 | 1007.6 |
| 20260505111515 | 60 | 240 | 2.6 | 7.0 | 0.00 | 0.00 | 0.00 | 76 | 1007.7 |
| 20260505111004 | 60 | 197 | 2.6 | 6.1 | 0.00 | 0.00 | 0.00 | 76 | 1007.7 |
| 20260505110503 | 60 | 253 | 0.9 | 7.0 | 0.00 | 0.00 | 0.00 | 75 | 1007.7 |
| 20260505102011 | 61 | 202 | 0.9 | 4.3 | 0.00 | 0.00 | 0.00 | 70 | 1007.7 |
| 20260505101540 | 61 | 179 | 1.7 | 4.3 | 0.00 | 0.00 | 0.00 | 70 | 1007.6 |
| 20260505101014 | 61 | 225 | 0.9 | 3.5 | 0.00 | 0.00 | 0.00 | 70 | 1007.7 |
| 20260505100506 | 61 | 207 | 0.0 | 2.6 | 0.00 | 0.00 | 0.00 | 70 | 1007.7 |
| 20260505100012 | 61 | 205 | 0.0 | 7.8 | 0.00 | 0.00 | 0.00 | 70 | 1007.7 |
| 20260505095506 | 62 | 218 | 2.6 | 7.8 | 0.00 | 0.00 | 0.00 | 70 | 1007.7 |
| 20260505095010 | 62 | 232 | 0.0 | 2.6 | 0.00 | 0.00 | 0.00 | 69 | 1007.7 |
| 20260505094526 | 62 | 215 | 0.0 | 2.6 | 0.00 | 0.00 | 0.00 | 69 | 1007.6 |
| 20260505094005 | 62 | 262 | 0.0 | 5.2 | 0.00 | 0.00 | 0.00 | 69 | 1007.7 |
| 20260505093508 | 62 | 208 | 0.9 | 5.2 | 0.00 | 0.00 | 0.00 | 68 | 1007.7 |
| 20260505093019 | 62 | 193 | 0.9 | 5.2 | 0.00 | 0.00 | 0.00 | 67 | 1007.6 |
| 20260505092510 | 62 | 223 | 0.0 | 7.0 | 0.00 | 0.00 | 0.00 | 67 | 1007.4 |
| 20260505092012 | 62 | 187 | 0.0 | 7.0 | 0.00 | 0.00 | 0.00 | 66 | 1007.3 |
| 20260505091526 | 63 | 251 | 1.7 | 6.1 | 0.00 | 0.00 | 0.00 | 66 | 1007.3 |
| 20260505091009 | 63 | 208 | 0.9 | 7.8 | 0.00 | 0.00 | 0.00 | 66 | 1007.3 |
| 20260505090510 | 63 | 190 | 0.9 | 8.7 | 0.00 | 0.00 | 0.00 | 65 | 1007.3 |
| 20260505090028 | 63 | 180 | 0.9 | 11.3 | 0.00 | 0.00 | 0.00 | 65 | 1007.3 |
| 20260505085509 | 63 | 232 | 3.5 | 11.3 | 0.00 | 0.00 | 0.00 | 65 | 1007.2 |
| 20260505085007 | 63 | 190 | 1.7 | 10.4 | 0.00 | 0.00 | 0.00 | 64 | 1007.2 |
| 20260505084514 | 64 | 215 | 4.3 | 13.0 | 0.00 | 0.00 | 0.00 | 63 | 1007.1 |
| 20260505084010 | 64 | 300 | 3.5 | 13.0 | 0.00 | 0.00 | 0.00 | 63 | 1007.1 |
| 20260505083507 | 64 | 242 | 3.5 | 13.0 | 0.00 | 0.00 | 0.00 | 63 | 1007.0 |
| 20260505083023 | 64 | 162 | 1.7 | 9.6 | 0.00 | 0.00 | 0.00 | 62 | 1006.8 |
| 20260505082511 | 64 | 201 | 2.6 | 10.4 | 0.00 | 0.00 | 0.00 | 62 | 1006.8 |
| 20260505082010 | 64 | 186 | 4.3 | 12.2 | 0.00 | 0.00 | 0.00 | 62 | 1006.5 |
| 20260505081526 | 64 | 265 | 3.5 | 13.0 | 0.00 | 0.00 | 0.00 | 62 | 1006.4 |
| 20260505081016 | 64 | 277 | 1.7 | 13.0 | 0.00 | 0.00 | 0.00 | 62 | 1006.3 |
| 20260505080510 | 64 | 191 | 4.3 | 14.8 | 0.00 | 0.00 | 0.00 | 62 | 1006.1 |
| 20260505080026 | 64 | 182 | 6.1 | 13.9 | 0.00 | 0.00 | 0.00 | 62 | 1006.1 |
| 20260505075511 | 64 | 228 | 3.5 | 14.8 | 0.00 | 0.00 | 0.00 | 63 | 1006.0 |
| 20260505075019 | 64 | 205 | 5.2 | 14.8 | 0.00 | 0.00 | 0.00 | 63 | 1005.9 |
| 20260505074529 | 64 | 250 | 3.5 | 13.9 | 0.00 | 0.00 | 0.00 | 63 | 1005.9 |
| 20260505074010 | 64 | 189 | 4.3 | 13.0 | 0.00 | 0.00 | 0.00 | 64 | 1006.1 |
| 20260505073515 | 64 | 174 | 3.5 | 13.0 | 0.00 | 0.00 | 0.00 | 64 | 1006.0 |
| 20260505073017 | 64 | 218 | 3.5 | 13.0 | 0.00 | 0.00 | 0.00 | 64 | 1006.0 |
| 20260505072506 | 63 | 223 | 3.5 | 10.4 | 0.00 | 0.00 | 0.00 | 65 | 1006.0 |
| 20260505072007 | 63 | 215 | 3.5 | 10.4 | 0.00 | 0.00 | 0.00 | 66 | 1006.1 |
| 20260505071530 | 63 | 205 | 2.6 | 11.3 | 0.00 | 0.00 | 0.00 | 66 | 1006.0 |
| 20260505071006 | 63 | 201 | 2.6 | 11.3 | 0.00 | 0.00 | 0.00 | 66 | 1006.0 |
| 20260505070511 | 63 | 185 | 2.6 | 9.6 | 0.00 | 0.00 | 0.00 | 66 | 1006.0 |
| 20260505070027 | 63 | 159 | 1.7 | 8.7 | 0.00 | 0.00 | 0.00 | 66 | 1006.0 |
| 20260505065509 | 64 | 207 | 3.5 | 8.7 | 0.00 | 0.00 | 0.00 | 65 | 1005.9 |
| 20260505065011 | 63 | 175 | 3.5 | 8.7 | 0.00 | 0.00 | 0.00 | 65 | 1005.9 |
| 20260505064528 | 63 | 194 | 1.7 | 7.0 | 0.00 | 0.00 | 0.00 | 66 | 1005.9 |
| 20260505064011 | 63 | 190 | 3.5 | 7.8 | 0.00 | 0.00 | 0.00 | 65 | 1005.9 |
| 20260505063509 | 63 | 240 | 3.5 | 8.7 | 0.00 | 0.00 | 0.00 | 66 | 1005.8 |
| 20260505063027 | 64 | 217 | 3.5 | 8.7 | 0.00 | 0.00 | 0.00 | 65 | 1005.9 |
| 20260505062511 | 64 | 178 | 2.6 | 8.7 | 0.00 | 0.00 | 0.00 | 65 | 1005.9 |
| 20260505062012 | 64 | 142 | 3.5 | 11.3 | 0.00 | 0.00 | 0.00 | 65 | 1005.7 |
| 20260505061520 | 64 | 158 | 1.7 | 11.3 | 0.00 | 0.00 | 0.00 | 65 | 1005.8 |
| 20260505061008 | 64 | 171 | 2.6 | 8.7 | 0.00 | 0.00 | 0.00 | 65 | 1005.8 |
| 20260505060510 | 64 | 183 | 2.6 | 7.8 | 0.00 | 0.00 | 0.00 | 65 | 1005.9 |
| 20260505060040 | 64 | 187 | 3.5 | 8.7 | 0.00 | 0.00 | 0.00 | 64 | 1005.8 |
| 20260505055513 | 64 | 229 | 2.6 | 8.7 | 0.00 | 0.00 | 0.00 | 64 | 1005.8 |
| 20260505055013 | 64 | 157 | 3.5 | 9.6 | 0.00 | 0.00 | 0.00 | 64 | 1005.9 |
| 20260505054527 | 64 | 297 | 4.3 | 10.4 | 0.00 | 0.00 | 0.00 | 64 | 1005.8 |
| 20260505054013 | 64 | 174 | 4.3 | 10.4 | 0.00 | 0.00 | 0.00 | 65 | 1005.9 |
| 20260505053509 | 64 | 183 | 2.6 | 7.8 | 0.00 | 0.00 | 0.00 | 65 | 1006.0 |
| 20260505053030 | 65 | 171 | 2.6 | 10.4 | 0.00 | 0.00 | 0.00 | 64 | 1006.1 |
| 20260505052509 | 65 | 175 | 3.5 | 10.4 | 0.00 | 0.00 | 0.00 | 64 | 1006.1 |
| 20260505052015 | 65 | 174 | 2.6 | 9.6 | 0.00 | 0.00 | 0.00 | 64 | 1006.2 |
| 20260505051529 | 65 | 191 | 2.6 | 9.6 | 0.00 | 0.00 | 0.00 | 64 | 1006.2 |
| 20260505051010 | 65 | 194 | 3.5 | 8.7 | 0.00 | 0.00 | 0.00 | 64 | 1006.4 |
| 20260505050512 | 65 | 193 | 2.6 | 9.6 | 0.00 | 0.00 | 0.00 | 63 | 1006.4 |
| 20260505041530 | 66 | 253 | 2.6 | 11.3 | 0.00 | 0.00 | 0.00 | 62 | 1006.3 |
| 20260505041010 | 66 | 212 | 3.5 | 11.3 | 0.00 | 0.00 | 0.00 | 62 | 1006.4 |
| 20260505040506 | 67 | 211 | 2.6 | 11.3 | 0.00 | 0.00 | 0.00 | 61 | 1006.5 |
| 20260505040022 | 67 | 179 | 2.6 | 14.8 | 0.00 | 0.00 | 0.00 | 61 | 1006.4 |
| 20260505035510 | 66 | 176 | 5.2 | 13.9 | 0.00 | 0.00 | 0.00 | 61 | 1006.4 |
| 20260505035010 | 66 | 320 | 3.5 | 8.7 | 0.00 | 0.00 | 0.00 | 62 | 1006.4 |
| 20260505034525 | 66 | 128 | 1.7 | 7.8 | 0.00 | 0.00 | 0.00 | 63 | 1006.3 |
| 20260505034007 | 66 | 360 | 1.7 | 9.6 | 0.00 | 0.00 | 0.00 | 63 | 1006.4 |
| 20260505033512 | 66 | 190 | 3.5 | 9.6 | 0.00 | 0.00 | 0.00 | 63 | 1006.4 |
| 20260505033028 | 66 | 209 | 1.7 | 7.8 | 0.00 | 0.00 | 0.00 | 63 | 1006.4 |
| 20260505032503 | 66 | 198 | 1.7 | 7.8 | 0.00 | 0.00 | 0.00 | 63 | 1006.3 |
| 20260505032003 | 66 | 151 | 2.6 | 7.8 | 0.00 | 0.00 | 0.00 | 63 | 1006.3 |
| 20260505031511 | 65 | 155 | 2.6 | 7.8 | 0.00 | 0.00 | 0.00 | 64 | 1006.2 |
| 20260505031004 | 65 | 171 | 1.7 | 7.8 | 0.00 | 0.00 | 0.00 | 65 | 1006.3 |
| 20260505030506 | 65 | 188 | 2.6 | 7.8 | 0.00 | 0.00 | 0.00 | 65 | 1006.2 |
| 20260505030016 | 65 | 154 | 2.6 | 7.0 | 0.00 | 0.00 | 0.00 | 65 | 1006.2 |
| 20260505025512 | 65 | 180 | 1.7 | 7.0 | 0.00 | 0.00 | 0.00 | 65 | 1006.2 |
| 20260505025007 | 65 | 215 | 1.7 | 7.0 | 0.00 | 0.00 | 0.00 | 65 | 1006.2 |
| 20260505024523 | 65 | 186 | 1.7 | 6.1 | 0.00 | 0.00 | 0.00 | 66 | 1006.1 |
| 20260505024007 | 65 | 167 | 1.7 | 6.1 | 0.00 | 0.00 | 0.00 | 65 | 1006.1 |
| 20260505023506 | 66 | 191 | 1.7 | 6.1 | 0.00 | 0.00 | 0.00 | 65 | 1006.1 |
| 20260505023025 | 66 | 166 | 1.7 | 5.2 | 0.00 | 0.00 | 0.00 | 65 | 1006.2 |
| 20260505022509 | 66 | 161 | 1.7 | 6.1 | 0.00 | 0.00 | 0.00 | 64 | 1006.2 |
| 20260505022013 | 66 | 173 | 1.7 | 6.1 | 0.00 | 0.00 | 0.00 | 64 | 1006.2 |
| 20260505021531 | 66 | 199 | 1.7 | 5.2 | 0.00 | 0.00 | 0.00 | 64 | 1006.2 |
| 20260505021007 | 67 | 171 | 0.9 | 6.1 | 0.00 | 0.00 | 0.00 | 64 | 1006.1 |
| 20260505020503 | 67 | 202 | 2.6 | 9.6 | 0.00 | 0.00 | 0.00 | 63 | 1006.1 |
| 20260505020012 | 67 | 136 | 2.6 | 9.6 | 0.00 | 0.00 | 0.00 | 63 | 1006.1 |
| 20260505015508 | 67 | 161 | 2.6 | 7.0 | 0.00 | 0.00 | 0.00 | 63 | 1006.1 |
| 20260505015010 | 66 | 161 | 2.6 | 7.8 | 0.00 | 0.00 | 0.00 | 63 | 1006.0 |
| 20260505014520 | 66 | 181 | 3.5 | 7.8 | 0.00 | 0.00 | 0.00 | 63 | 1006.0 |
| 20260505014010 | 66 | 181 | 1.7 | 5.2 | 0.00 | 0.00 | 0.00 | 63 | 1005.9 |
| 20260505013505 | 66 | 185 | 1.7 | 5.2 | 0.00 | 0.00 | 0.00 | 63 | 1005.8 |
| 20260505013021 | 66 | 189 | 1.7 | 5.2 | 0.00 | 0.00 | 0.00 | 62 | 1005.7 |
| 20260505012507 | 67 | 200 | 2.6 | 6.1 | 0.00 | 0.00 | 0.00 | 62 | 1005.7 |
| 20260505012011 | 67 | 177 | 2.6 | 6.1 | 0.00 | 0.00 | 0.00 | 62 | 1005.6 |
| 20260505011528 | 67 | 174 | 1.7 | 4.3 | 0.00 | 0.00 | 0.00 | 62 | 1005.7 |
| 20260505011008 | 67 | 187 | 1.7 | 5.2 | 0.00 | 0.00 | 0.00 | 61 | 1005.6 |
| 20260505010505 | 67 | 170 | 0.9 | 5.2 | 0.00 | 0.00 | 0.00 | 61 | 1005.6 |
| 20260505010002 | 67 | 190 | 1.7 | 4.3 | 0.00 | 0.00 | 0.00 | 61 | 1005.5 |
| 20260505005504 | 67 | 215 | 1.7 | 5.2 | 0.00 | 0.00 | 0.00 | 60 | 1005.4 |
| 20260505005004 | 68 | 161 | 1.7 | 5.2 | 0.00 | 0.00 | 0.00 | 60 | 1005.5 |
| 20260505004503 | 68 | 189 | 0.9 | 7.0 | 0.00 | 0.00 | 0.00 | 60 | 1005.6 |
| 20260505004003 | 68 | 161 | 2.6 | 7.0 | 0.00 | 0.00 | 0.00 | 59 | 1005.6 |
| 20260505003506 | 68 | 199 | 1.7 | 7.0 | 0.00 | 0.00 | 0.00 | 59 | 1005.6 |
| 20260505003004 | 68 | 223 | 2.6 | 6.1 | 0.00 | 0.00 | 0.00 | 59 | 1005.7 |
| 20260505002505 | 68 | 173 | 0.9 | 5.2 | 0.00 | 0.00 | 0.00 | 58 | 1005.6 |
| 20260505002004 | 69 | 153 | 1.7 | 5.2 | 0.00 | 0.00 | 0.00 | 57 | 1005.5 |
| 20260505001506 | 69 | 168 | 0.9 | 7.0 | 0.00 | 0.00 | 0.00 | 57 | 1005.5 |
| 20260505001004 | 69 | 235 | 0.9 | 7.8 | 0.00 | 0.00 | 0.00 | 56 | 1005.4 |
| 20260505000504 | 70 | 189 | 1.7 | 7.8 | 0.00 | 0.00 | 0.00 | 55 | 1005.4 |
| 20260505000019 | 70 | 212 | 2.6 | 7.0 | 0.00 | 0.00 | 0.00 | 54 | 1005.5 |
| 20260504235504 | 70 | 180 | 1.7 | 6.1 | 0.00 | 0.00 | 0.00 | 54 | 1005.6 |
| 20260504235004 | 70 | 238 | 0.9 | 7.0 | 0.00 | 0.00 | 0.00 | 54 | 1005.7 |
| 20260504234502 | 71 | 257 | 2.6 | 7.0 | 0.00 | 0.00 | 0.00 | 54 | 1005.7 |
| 20260504234003 | 71 | 220 | 2.6 | 10.4 | 0.00 | 0.00 | 0.00 | 52 | 1005.8 |
| 20260504233503 | 71 | 180 | 3.5 | 10.4 | 0.00 | 0.00 | 0.00 | 51 | 1005.8 |
| 20260504233005 | 71 | 159 | 5.2 | 10.4 | 0.00 | 0.00 | 0.00 | 51 | 1005.7 |
| 20260504232503 | 71 | 195 | 4.3 | 10.4 | 0.00 | 0.00 | 0.00 | 52 | 1005.7 |
| 20260504232004 | 71 | 170 | 4.3 | 13.9 | 0.00 | 0.00 | 0.00 | 52 | 1005.8 |
| 20260504231504 | 71 | 232 | 4.3 | 13.9 | 0.00 | 0.00 | 0.00 | 54 | 1005.9 |
| 20260504231003 | 71 | 202 | 0.9 | 9.6 | 0.00 | 0.00 | 0.00 | 56 | 1006.0 |
| 20260504230504 | 71 | 275 | 2.6 | 11.3 | 0.00 | 0.00 | 0.00 | 54 | 1006.0 |
| 20260504230006 | 70 | 165 | 3.5 | 11.3 | 0.00 | 0.00 | 0.00 | 54 | 1005.9 |
| 20260504225506 | 70 | 169 | 4.3 | 10.4 | 0.00 | 0.00 | 0.00 | 54 | 1006.2 |
| 20260504225009 | 70 | 190 | 1.7 | 10.4 | 0.00 | 0.00 | 0.00 | 55 | 1006.2 |
| 20260504224513 | 70 | 192 | 2.6 | 10.4 | 0.00 | 0.00 | 0.00 | 54 | 1006.4 |
| 20260504224003 | 70 | 149 | 1.7 | 10.4 | 0.00 | 0.00 | 0.00 | 55 | 1006.5 |
| 20260504223507 | 70 | 197 | 3.5 | 15.6 | 0.00 | 0.00 | 0.00 | 54 | 1006.6 |
| 20260504223007 | 70 | 199 | 5.2 | 15.6 | 0.00 | 0.00 | 0.00 | 54 | 1006.6 |
| 20260504222503 | 70 | 221 | 4.3 | 12.2 | 0.00 | 0.00 | 0.00 | 54 | 1006.7 |
| 20260504222002 | 70 | 199 | 3.5 | 12.2 | 0.00 | 0.00 | 0.00 | 54 | 1006.7 |
| 20260504221503 | 69 | 133 | 4.3 | 13.9 | 0.00 | 0.00 | 0.00 | 56 | 1006.7 |
| 20260504221003 | 69 | 173 | 3.5 | 13.9 | 0.00 | 0.00 | 0.00 | 56 | 1006.8 |
| 20260504220505 | 68 | 263 | 3.5 | 12.2 | 0.00 | 0.00 | 0.00 | 57 | 1006.8 |
| 20260504220006 | 68 | 177 | 2.6 | 12.2 | 0.00 | 0.00 | 0.00 | 58 | 1006.6 |
| 20260504215505 | 68 | 209 | 4.3 | 14.8 | 0.00 | 0.00 | 0.00 | 57 | 1006.7 |
| 20260504215003 | 68 | 24 | 3.5 | 14.8 | 0.00 | 0.00 | 0.00 | 57 | 1006.6 |
| 20260504214518 | 69 | 194 | 3.5 | 13.9 | 0.00 | 0.00 | 0.00 | 57 | 1006.8 |
| 20260504214010 | 69 | 138 | 4.3 | 13.9 | 0.00 | 0.00 | 0.00 | 56 | 1006.8 |
| 20260504213506 | 70 | 191 | 6.1 | 12.2 | 0.00 | 0.00 | 0.00 | 54 | 1006.8 |
| 20260504213016 | 70 | 96 | 5.2 | 19.1 | 0.00 | 0.00 | 0.00 | 53 | 1007.0 |
| 20260504212509 | 71 | 209 | 5.2 | 19.1 | 0.00 | 0.00 | 0.00 | 52 | 1007.0 |
| 20260504212010 | 71 | 221 | 5.2 | 16.5 | 0.00 | 0.00 | 0.00 | 51 | 1007.0 |
| 20260504211504 | 71 | 215 | 4.3 | 21.7 | 0.00 | 0.00 | 0.00 | 52 | 1006.9 |
| 20260504211003 | 71 | 205 | 6.1 | 21.7 | 0.00 | 0.00 | 0.00 | 52 | 1006.8 |
| 20260504210503 | 71 | 275 | 3.5 | 13.0 | 0.00 | 0.00 | 0.00 | 52 | 1006.7 |
| 20260504210003 | 70 | 333 | 4.3 | 11.3 | 0.00 | 0.00 | 0.00 | 54 | 1006.6 |
| 20260504205506 | 69 | 211 | 2.6 | 13.0 | 0.00 | 0.00 | 0.00 | 56 | 1006.7 |
| 20260504205005 | 69 | 242 | 5.2 | 13.0 | 0.00 | 0.00 | 0.00 | 53 | 1006.6 |
| 20260504204514 | 69 | 231 | 1.7 | 11.3 | 0.00 | 0.00 | 0.00 | 56 | 1006.8 |
| 20260504204003 | 69 | 239 | 3.5 | 13.0 | 0.00 | 0.00 | 0.00 | 56 | 1006.8 |
| 20260504203508 | 69 | 175 | 5.2 | 13.9 | 0.00 | 0.00 | 0.00 | 55 | 1007.0 |
| 20260504203012 | 69 | 188 | 5.2 | 13.0 | 0.00 | 0.00 | 0.00 | 57 | 1007.1 |
| 20260504202505 | 69 | 184 | 3.5 | 20.9 | 0.00 | 0.00 | 0.00 | 57 | 1007.2 |
| 20260504202008 | 70 | 315 | 7.8 | 20.0 | 0.00 | 0.00 | 0.00 | 55 | 1007.3 |
| 20260504201520 | 70 | 161 | 6.1 | 14.8 | 0.00 | 0.00 | 0.00 | 55 | 1007.5 |
| 20260504201008 | 70 | 308 | 6.1 | 19.1 | 0.00 | 0.00 | 0.00 | 55 | 1007.6 |
| 20260504200506 | 70 | 163 | 6.1 | 19.1 | 0.00 | 0.00 | 0.00 | 55 | 1007.7 |
| 20260504200020 | 70 | 160 | 7.8 | 22.6 | 0.00 | 0.00 | 0.00 | 54 | 1007.9 |
| 20260504195502 | 71 | 229 | 7.0 | 22.6 | 0.00 | 0.00 | 0.00 | 54 | 1007.9 |
| 20260504195003 | 72 | 168 | 7.8 | 20.0 | 0.00 | 0.00 | 0.00 | 51 | 1008.1 |